Time;durP1;ratioP1;P1;durP2;ratioP2;P2;SDS_P1;SDS_P2;PMS_P1;PMS_P2;Temp;Humidity;BMP_temperature;BMP_pressure;BME280_temperature;BME280_humidity;BME280_pressure;Samples;Min_cycle;Max_cycle;Signal;HPM_P1;HPM_P2
2022/08/18 00:00:29;;;;;;;16.73;15.02;;;;;;;17.87;83.39;99280.03;5093908;28;20119;-68
2022/08/18 00:03:03;;;;;;;23.13;19.55;;;;;;;17.83;83.70;99289.28;5093380;28;20127;-69
2022/08/18 00:05:29;;;;;;;17.85;16.05;;;;;;;17.80;84.21;99293.06;5075153;28;20100;-68
2022/08/18 00:07:56;;;;;;;15.60;14.00;;;;;;;17.77;83.87;99290.63;5052267;28;20053;-67
2022/08/18 00:10:22;;;;;;;28.98;17.13;;;;;;;17.74;84.04;99293.56;5052426;28;20056;-69
2022/08/18 00:12:50;;;;;;;19.52;17.55;;;;;;;17.70;84.51;99289.50;5052235;28;20059;-67
2022/08/18 00:15:18;;;;;;;16.13;14.43;;;;;;;17.67;84.60;99292.41;5051601;28;20048;-67
2022/08/18 00:17:45;;;;;;;22.33;20.02;;;;;;;17.56;84.75;99291.50;5051999;28;20049;-68
2022/08/18 00:20:14;;;;;;;21.23;17.58;;;;;;;17.52;85.09;99289.22;5051838;28;20413;-68
2022/08/18 00:22:40;;;;;;;14.93;13.40;;;;;;;17.51;85.93;99296.41;5051947;28;20048;-68
2022/08/18 00:25:09;;;;;;;21.08;19.08;;;;;;;17.49;85.45;99293.00;5070290;28;20063;-68
2022/08/18 00:27:37;;;;;;;17.20;15.45;;;;;;;17.48;85.81;99293.16;5071731;28;20048;-67
2022/08/18 00:30:07;;;;;;;19.50;17.50;;;;;;;17.50;85.51;99294.72;5071619;28;20067;-68
2022/08/18 00:32:38;;;;;;;17.48;15.70;;;;;;;17.51;85.59;99292.88;5082589;28;20048;-68
2022/08/18 00:35:07;;;;;;;19.35;17.40;;;;;;;17.51;85.37;99279.56;5091802;28;20062;-69
2022/08/18 00:37:33;;;;;;;26.92;24.10;;;;;;;17.48;85.35;99279.84;5092117;28;20052;-67
2022/08/18 00:40:00;;;;;;;22.63;20.23;;;;;;;17.45;86.12;99290.75;5092065;28;20056;-67
2022/08/18 00:42:28;;;;;;;21.38;19.17;;;;;;;17.47;86.64;99288.78;5091813;28;20131;-67
2022/08/18 00:44:56;;;;;;;25.98;23.38;;;;;;;17.45;86.18;99286.28;5091431;28;20048;-69
2022/08/18 00:47:27;;;;;;;26.13;23.58;;;;;;;17.41;86.75;99276.00;5091718;28;20055;-69
2022/08/18 00:49:53;;;;;;;21.08;17.77;;;;;;;17.41;87.11;99273.34;5077208;28;20051;-68
2022/08/18 00:52:22;;;;;;;24.60;22.10;;;;;;;17.40;86.68;99267.19;5051572;28;20049;-68
2022/08/18 00:54:54;;;;;;;25.42;22.65;;;;;;;17.38;86.80;99277.94;5051294;28;20049;-68
2022/08/18 00:57:23;;;;;;;26.52;23.90;;;;;;;17.37;86.57;99264.75;5051487;28;20049;-68
2022/08/18 00:59:54;;;;;;;24.35;21.92;;;;;;;17.33;86.35;99266.84;5051311;28;20045;-69
2022/08/18 01:02:26;;;;;;;27.58;24.83;;;;;;;17.28;86.62;99271.72;5051310;28;20147;-67
2022/08/18 01:04:57;;;;;;;28.38;25.45;;;;;;;17.26;86.80;99272.84;5050662;28;20511;-67
2022/08/18 01:07:28;;;;;;;27.25;24.42;;;;;;;17.21;87.22;99270.56;5050160;28;20045;-68
2022/08/18 01:09:58;;;;;;;22.52;20.23;;;;;;;17.20;87.49;99279.50;5050686;28;20204;-68
2022/08/18 01:12:25;;;;;;;26.35;21.23;;;;;;;17.22;87.29;99285.56;5051038;28;20057;-66
2022/08/18 01:14:51;;;;;;;26.88;22.85;;;;;;;17.19;87.24;99280.50;5050380;28;20041;-69
2022/08/18 01:22:57;;;;;;;25.15;22.50;;;;;;;16.97;87.88;99280.63;5050875;28;20063;-68
2022/08/18 01:28:22;;;;;;;27.95;24.52;;;;;;;16.78;88.52;99295.44;5016736;28;20545;-68
2022/08/18 01:30:57;;;;;;;26.33;23.55;;;;;;;16.73;88.91;99298.47;5076379;28;20052;-68
2022/08/18 01:33:25;;;;;;;24.40;21.80;;;;;;;16.74;89.19;99294.00;5090879;28;20044;-68
2022/08/18 01:35:53;;;;;;;30.73;27.45;;;;;;;16.73;89.21;99284.31;5090289;28;20463;-68
2022/08/18 01:38:22;;;;;;;25.35;22.50;;;;;;;16.74;89.00;99270.88;5090865;28;20384;-68
2022/08/18 01:40:50;;;;;;;26.48;22.88;;;;;;;16.75;88.76;99288.53;5090716;28;20098;-68
2022/08/18 01:43:17;;;;;;;24.58;22.05;;;;;;;16.71;88.61;99287.13;5090748;28;20044;-67
2022/08/18 01:45:44;;;;;;;29.55;24.15;;;;;;;16.69;88.84;99285.56;5090342;28;20499;-68
2022/08/18 01:48:11;;;;;;;25.95;22.83;;;;;;;16.67;89.43;99290.16;5090626;28;20044;-68
2022/08/18 01:50:40;;;;;;;22.98;19.55;;;;;;;16.66;89.34;99297.31;5090304;28;20060;-68
2022/08/18 01:53:10;;;;;;;21.83;19.33;;;;;;;16.69;89.13;99305.03;5090475;28;20052;-68
2022/08/18 01:55:44;;;;;;;22.90;20.33;;;;;;;16.70;88.89;99312.03;5090292;28;20055;-69
2022/08/18 01:58:11;;;;;;;25.50;22.80;;;;;;;16.72;89.04;99306.59;5090507;28;20415;-68
2022/08/18 02:00:38;;;;;;;30.50;25.92;;;;;;;16.73;89.40;99311.75;5090356;28;20048;-68
2022/08/18 02:03:08;;;;;;;24.80;21.42;;;;;;;16.71;90.03;99313.75;5090283;28;20047;-69
2022/08/18 02:05:39;;;;;;;24.70;22.05;;;;;;;16.73;89.65;99313.59;5089925;28;20629;-68
2022/08/18 02:08:07;;;;;;;22.30;19.98;;;;;;;16.74;89.98;99308.16;5090029;28;20050;-68
2022/08/18 02:10:33;;;;;;;25.77;23.08;;;;;;;16.80;88.88;99306.81;5089854;28;20139;-68
2022/08/18 02:13:01;;;;;;;28.00;24.90;;;;;;;16.73;89.14;99302.94;5090227;28;20048;-69
2022/08/18 02:15:28;;;;;;;26.25;23.13;;;;;;;16.70;89.57;99303.19;5078131;28;20045;-68
2022/08/18 02:17:55;;;;;;;27.50;24.52;;;;;;;16.66;89.73;99304.41;5069880;28;20053;-70
2022/08/18 02:20:21;;;;;;;25.38;22.75;;;;;;;16.63;89.49;99310.84;5068806;28;20053;-68
2022/08/18 02:22:49;;;;;;;23.63;21.17;;;;;;;16.61;89.12;99306.63;5074005;28;20080;-68
2022/08/18 02:25:17;;;;;;;31.77;25.83;;;;;;;16.57;89.28;99292.72;5081686;28;20050;-68
2022/08/18 02:27:44;;;;;;;25.30;22.48;;;;;;;16.57;89.34;99291.88;5089844;28;20153;-68
2022/08/18 02:30:15;;;;;;;29.98;26.88;;;;;;;16.56;89.65;99291.00;5089961;28;20582;-68
2022/08/18 02:32:42;;;;;;;24.00;19.77;;;;;;;16.56;89.60;99285.69;5089858;28;20054;-68
2022/08/18 02:35:10;;;;;;;30.70;27.58;;;;;;;16.56;89.21;99288.34;5089164;28;20158;-67
2022/08/18 02:37:37;;;;;;;34.50;28.10;;;;;;;16.52;89.64;99298.41;5089753;28;20105;-69
2022/08/18 02:40:05;;;;;;;27.08;24.33;;;;;;;16.49;89.80;99296.03;5089591;28;20462;-70
2022/08/18 02:42:31;;;;;;;25.98;23.17;;;;;;;16.50;89.52;99294.19;5089512;28;20048;-68
2022/08/18 02:44:58;;;;;;;26.40;23.63;;;;;;;16.45;89.36;99291.91;5089291;28;20058;-67
2022/08/18 02:47:26;;;;;;;24.38;21.77;;;;;;;16.41;89.15;99294.94;5089694;28;20735;-68
2022/08/18 02:49:52;;;;;;;27.38;24.40;;;;;;;16.38;89.18;99280.06;5089218;28;20492;-68
2022/08/18 02:52:19;;;;;;;26.85;22.50;;;;;;;16.33;88.94;99287.59;5089548;28;20517;-67
2022/08/18 02:54:46;;;;;;;26.65;21.48;;;;;;;16.33;88.88;99279.59;5080760;28;20135;-68
2022/08/18 02:57:13;;;;;;;24.45;21.92;;;;;;;16.31;88.92;99277.06;5049130;28;20056;-68
2022/08/18 02:59:40;;;;;;;25.48;22.20;;;;;;;16.27;89.49;99272.97;5049099;28;20055;-68
2022/08/18 03:02:09;;;;;;;31.70;28.25;;;;;;;16.21;89.28;99270.78;5049095;28;20060;-68
2022/08/18 03:04:37;;;;;;;28.83;25.75;;;;;;;16.17;89.65;99271.16;5048626;28;20136;-67
2022/08/18 03:07:05;;;;;;;32.80;26.27;;;;;;;16.14;89.86;99271.41;5048648;28;20398;-68
2022/08/18 03:09:33;;;;;;;28.27;24.75;;;;;;;16.10;89.92;99269.00;5048811;28;20056;-68
2022/08/18 03:12:00;;;;;;;31.67;28.38;;;;;;;16.12;89.97;99274.22;5049362;28;20128;-68
2022/08/18 03:14:27;;;;;;;30.40;26.83;;;;;;;16.12;89.65;99271.56;5048374;28;20045;-67
2022/08/18 03:16:53;;;;;;;29.50;26.40;;;;;;;16.05;89.67;99276.53;5048282;28;20139;-69
2022/08/18 03:19:21;;;;;;;31.65;26.85;;;;;;;16.01;90.18;99263.59;5057661;28;20059;-68
2022/08/18 03:21:49;;;;;;;26.58;23.65;;;;;;;16.03;90.28;99259.84;5080333;28;20136;-67
2022/08/18 03:24:17;;;;;;;33.47;29.05;;;;;;;16.08;90.12;99262.13;5088354;28;20048;-68
2022/08/18 03:26:45;;;;;;;31.63;26.77;;;;;;;16.05;89.90;99263.22;5088764;28;20083;-68
2022/08/18 03:29:12;;;;;;;31.67;24.08;;;;;;;16.05;89.89;99273.03;5088484;28;20058;-67
2022/08/18 03:31:41;;;;;;;34.60;28.70;;;;;;;16.02;90.58;99262.59;5088063;28;20613;-67
2022/08/18 03:34:08;;;;;;;29.45;26.30;;;;;;;16.00;90.06;99264.56;5088476;28;20048;-67
2022/08/18 03:36:36;;;;;;;29.17;26.13;;;;;;;15.95;90.14;99264.94;5088796;28;20125;-67
2022/08/18 03:39:06;;;;;;;27.25;23.17;;;;;;;15.95;90.51;99269.38;5088757;28;20408;-68
2022/08/18 03:41:34;;;;;;;27.80;24.55;;;;;;;15.94;89.98;99268.53;5088573;28;20059;-67
2022/08/18 03:44:02;;;;;;;29.35;26.10;;;;;;;15.93;90.14;99272.19;5088371;28;20130;-68
2022/08/18 03:46:28;;;;;;;33.63;30.10;;;;;;;15.95;89.80;99262.28;5088320;28;20063;-67
2022/08/18 03:48:57;;;;;;;34.70;30.38;;;;;;;15.90;90.12;99256.47;5088460;28;20054;-68
2022/08/18 03:51:25;;;;;;;26.95;24.02;;;;;;;15.86;90.57;99247.06;5088253;28;20146;-67
2022/08/18 03:53:54;;;;;;;28.75;23.75;;;;;;;15.89;90.38;99244.97;5088140;28;20052;-68
2022/08/18 03:56:25;;;;;;;28.35;24.90;;;;;;;15.88;90.02;99245.97;5088327;28;20044;-68
2022/08/18 03:58:56;;;;;;;29.58;26.42;;;;;;;15.84;89.67;99244.50;5088315;28;20052;-68
2022/08/18 04:01:24;;;;;;;29.33;25.42;;;;;;;15.81;89.59;99246.56;5088477;28;20055;-67
2022/08/18 04:03:55;;;;;;;33.10;29.67;;;;;;;15.80;89.55;99255.50;5088209;28;20138;-69
2022/08/18 04:06:24;;;;;;;35.92;29.42;;;;;;;15.72;90.02;99247.28;5088281;28;20048;-66
2022/08/18 04:08:52;;;;;;;34.05;30.50;;;;;;;15.67;90.44;99256.44;5078415;28;20064;-66
2022/08/18 04:11:19;;;;;;;31.92;27.42;;;;;;;15.67;90.61;99248.47;5047925;28;20056;-67
2022/08/18 04:13:47;;;;;;;26.80;23.90;;;;;;;15.67;89.67;99253.78;5048050;28;20071;-67
2022/08/18 04:16:15;;;;;;;30.58;27.10;;;;;;;15.68;89.24;99252.00;5069755;28;20074;-68
2022/08/18 04:18:41;;;;;;;27.35;24.42;;;;;;;15.65;89.85;99254.88;5079679;28;20138;-68
2022/08/18 04:21:12;;;;;;;28.75;24.30;;;;;;;15.64;89.82;99256.69;5088138;28;20048;-69
2022/08/18 04:23:41;;;;;;;32.25;28.42;;;;;;;15.60;89.94;99257.91;5071028;28;20472;-68
2022/08/18 04:26:10;;;;;;;28.95;25.88;;;;;;;15.61;90.49;99270.22;5067809;28;20090;-68
2022/08/18 04:28:37;;;;;;;35.28;31.42;;;;;;;15.64;90.63;99271.78;5068012;28;20052;-68
2022/08/18 04:31:08;;;;;;;27.70;24.70;;;;;;;15.65;91.04;99277.00;5067980;28;20062;-67
2022/08/18 04:33:35;;;;;;;35.85;27.13;;;;;;;15.68;91.46;99276.75;5067813;28;20051;-68
2022/08/18 04:36:08;;;;;;;30.45;26.88;;;;;;;15.73;90.63;99275.59;5067407;28;20079;-68
2022/08/18 04:38:35;;;;;;;34.83;28.98;;;;;;;15.74;91.06;99282.56;5067722;28;20048;-68
2022/08/18 04:41:02;;;;;;;32.78;29.20;;;;;;;15.72;90.12;99293.31;5067517;28;20057;-68
2022/08/18 04:43:29;;;;;;;30.52;26.83;;;;;;;15.66;90.60;99299.09;5070272;28;20049;-67
2022/08/18 04:46:00;;;;;;;34.85;29.70;;;;;;;15.65;90.10;99290.28;5071292;28;20052;-68
2022/08/18 04:48:32;;;;;;;29.90;26.70;;;;;;;15.67;91.48;99292.78;5071315;28;20137;-68
2022/08/18 04:51:02;;;;;;;34.42;30.60;;;;;;;15.75;90.61;99290.44;5056920;28;20052;-68
2022/08/18 04:53:46;;;;;;;34.33;30.42;;;;;;;15.77;89.94;99295.63;5051198;28;20053;-68
2022/08/18 04:56:24;;;;;;;35.00;27.58;;;;;;;15.82;90.32;99298.75;5051132;28;20048;-68
2022/08/18 04:58:52;;;;;;;33.00;29.50;;;;;;;15.85;89.24;99290.53;5051111;28;20057;-68
2022/08/18 05:01:20;;;;;;;29.65;24.05;;;;;;;15.86;89.90;99294.91;5051125;28;20716;-68
2022/08/18 05:03:49;;;;;;;30.55;27.35;;;;;;;15.92;89.39;99298.88;5051267;28;20041;-68
2022/08/18 05:06:16;;;;;;;31.65;28.13;;;;;;;15.96;89.61;99303.00;5050748;28;20068;-68
2022/08/18 05:08:43;;;;;;;30.45;27.15;;;;;;;16.02;89.61;99308.69;5050674;28;20051;-68
2022/08/18 05:11:10;;;;;;;31.20;27.75;;;;;;;16.11;89.56;99315.06;5053801;28;20055;-68
2022/08/18 05:13:36;;;;;;;48.65;37.40;;;;;;;16.26;91.69;99313.81;5081742;28;20048;-68
2022/08/18 05:16:03;;;;;;;37.30;30.80;;;;;;;16.36;90.61;99319.25;5077840;28;20055;-68
2022/08/18 05:18:32;;;;;;;34.30;30.30;;;;;;;16.36;89.65;99326.41;5070899;28;20106;-68
2022/08/18 05:21:01;;;;;;;32.45;28.20;;;;;;;16.35;88.42;99330.88;5070639;28;20056;-68
2022/08/18 05:23:29;;;;;;;27.73;24.42;;;;;;;16.31;87.73;99332.91;5070616;28;20056;-68
2022/08/18 05:25:59;;;;;;;27.80;23.35;;;;;;;16.31;87.95;99334.75;5070281;28;20142;-67
2022/08/18 05:28:26;;;;;;;29.85;26.40;;;;;;;16.34;88.63;99333.66;5070606;28;20045;-68
2022/08/18 05:30:53;;;;;;;31.65;27.10;;;;;;;16.33;88.02;99330.16;5070742;28;20044;-68
2022/08/18 05:33:20;;;;;;;30.92;26.92;;;;;;;16.36;89.17;99329.91;5070654;28;20086;-67
2022/08/18 05:35:49;;;;;;;40.05;33.58;;;;;;;16.44;89.77;99334.59;5070203;28;20135;-68
2022/08/18 05:38:29;;;;;;;46.30;38.30;;;;;;;16.51;91.18;99327.81;5070352;28;20054;-68
2022/08/18 05:41:06;;;;;;;52.53;40.95;;;;;;;16.63;93.04;99331.28;5070255;28;20040;-67
2022/08/18 05:43:34;;;;;;;54.33;39.50;;;;;;;16.75;94.38;99333.78;5070048;28;20516;-67
2022/08/18 05:46:04;;;;;;;67.20;48.78;;;;;;;16.83;94.43;99338.50;5070081;28;20500;-68
2022/08/18 05:48:31;;;;;;;58.60;42.22;;;;;;;16.87;95.35;99339.13;5070306;28;20053;-67
2022/08/18 05:51:01;;;;;;;56.65;41.30;;;;;;;16.93;95.14;99338.59;5069822;28;20052;-69
2022/08/18 05:59:00;;;;;;;51.10;39.95;;;;;;;17.04;94.13;99351.03;5070301;28;20059;-67
2022/08/18 06:01:30;;;;;;;53.17;41.38;;;;;;;17.06;93.70;99344.63;5070055;28;20067;-67
2022/08/18 06:04:04;;;;;;;48.05;38.40;;;;;;;17.09;93.89;99348.84;5069935;28;20055;-67
2022/08/18 06:06:33;;;;;;;44.88;36.75;;;;;;;17.07;93.47;99351.63;5066516;28;20164;-68
2022/08/18 06:09:10;;;;;;;42.25;34.30;;;;;;;17.09;93.95;99354.16;5077903;28;20135;-67
2022/08/18 06:11:37;;;;;;;48.65;37.90;;;;;;;17.11;94.08;99357.56;5089673;28;20050;-68
2022/08/18 06:14:04;;;;;;;59.00;37.55;;;;;;;17.14;94.18;99351.97;5085146;28;20067;-68
2022/08/18 06:16:49;;;;;;;76.80;40.53;;;;;;;17.19;94.15;99360.41;5065871;28;20072;-67
2022/08/18 06:19:28;;;;;;;80.90;50.92;;;;;;;17.21;94.55;99362.97;5069778;28;20044;-67
2022/08/18 06:22:03;;;;;;;58.70;40.88;;;;;;;17.20;94.87;99364.75;5069744;28;20511;-68
2022/08/18 06:24:37;;;;;;;55.60;41.17;;;;;;;17.17;94.60;99365.00;5070565;28;20060;-67
2022/08/18 06:27:14;;;;;;;69.93;43.70;;;;;;;17.14;95.97;99368.78;5069838;28;20052;-67
2022/08/18 06:29:53;;;;;;;50.83;39.22;;;;;;;17.14;96.07;99370.59;5069658;28;20053;-68
2022/08/18 06:32:33;;;;;;;54.83;40.10;;;;;;;17.16;96.00;99369.50;5069579;28;20041;-67
2022/08/18 06:35:10;;;;;;;66.60;43.05;;;;;;;17.22;96.51;99367.31;5069040;28;20106;-67
2022/08/18 06:40:27;;;;;;;69.22;44.90;;;;;;;17.22;97.07;99370.81;5068772;28;20055;-67
2022/08/18 06:42:54;;;;;;;67.53;44.60;;;;;;;17.22;97.35;99370.81;5069255;28;20423;-68
2022/08/18 06:45:29;;;;;;;64.60;44.92;;;;;;;17.27;98.40;99371.25;5069757;28;20056;-68
2022/08/18 06:48:02;;;;;;;60.42;41.70;;;;;;;17.30;97.52;99363.03;5074051;28;20079;-67
2022/08/18 06:50:34;;;;;;;72.80;48.75;;;;;;;17.33;97.61;99370.75;5070166;28;20094;-67
2022/08/18 06:53:03;;;;;;;59.75;42.03;;;;;;;17.32;97.08;99377.03;5072951;28;20045;-68
2022/08/18 06:55:36;;;;;;;64.72;43.50;;;;;;;17.31;97.28;99377.19;5073271;28;20049;-67
2022/08/18 06:58:05;;;;;;;65.72;43.42;;;;;;;17.34;97.75;99375.09;5072668;28;20055;-68
2022/08/18 07:00:35;;;;;;;77.22;46.47;;;;;;;17.37;98.75;99374.00;5071051;28;20047;-68
2022/08/18 07:03:06;;;;;;;87.70;49.55;;;;;;;17.41;99.05;99378.09;5070056;28;20045;-68
2022/08/18 07:05:36;;;;;;;67.45;44.67;;;;;;;17.45;98.93;99376.00;5077887;28;20051;-68
2022/08/18 07:08:17;;;;;;;54.78;40.50;;;;;;;17.51;98.66;99376.34;5083914;28;20048;-68
2022/08/18 07:10:48;;;;;;;106.95;57.10;;;;;;;17.47;96.99;99379.41;5090800;28;20044;-66
2022/08/18 07:13:19;;;;;;;84.60;51.30;;;;;;;17.48;98.46;99373.94;5093208;28;20135;-66
2022/08/18 07:15:47;;;;;;;53.67;40.00;;;;;;;17.53;98.53;99382.41;5082056;28;20155;-67
2022/08/18 07:18:16;;;;;;;59.22;41.45;;;;;;;17.58;98.83;99377.53;5073704;28;20063;-68
2022/08/18 07:20:44;;;;;;;61.05;41.03;;;;;;;17.62;98.44;99383.44;5073729;28;20059;-68
2022/08/18 07:23:23;;;;;;;61.78;41.42;;;;;;;17.68;98.70;99380.25;5072788;28;20048;-68
2022/08/18 07:25:59;;;;;;;61.45;41.28;;;;;;;17.69;98.20;99381.94;5072541;28;20492;-69
2022/08/18 07:28:31;;;;;;;69.63;43.92;;;;;;;17.74;98.44;99382.38;5073624;28;20053;-67
2022/08/18 07:31:18;;;;;;;58.50;38.88;;;;;;;17.82;99.12;99384.44;5072302;28;20037;-68
2022/08/18 07:33:50;;;;;;;55.65;36.95;;;;;;;17.83;98.17;99369.28;5075227;28;20048;-67
2022/08/18 07:36:20;;;;;;;46.58;34.22;;;;;;;17.85;97.62;99368.19;5071096;28;20055;-67
2022/08/18 07:38:53;;;;;;;50.42;35.15;;;;;;;17.90;97.53;99370.44;5070660;28;20132;-67
2022/08/18 07:41:26;;;;;;;41.55;28.40;;;;;;;17.98;98.88;99376.78;5068204;28;20054;-51
2022/08/18 07:44:03;;;;;;;44.40;32.65;;;;;;;18.18;96.08;99379.56;5065991;28;20044;-50
2022/08/18 07:46:36;;;;;;;47.28;34.28;;;;;;;18.27;95.39;99375.25;5065817;28;20048;-50
2022/08/18 07:49:04;;;;;;;56.95;35.38;;;;;;;18.21;93.86;99384.63;5068736;28;20101;-47
2022/08/18 07:51:46;;;;;;;54.60;36.53;;;;;;;18.23;95.69;99380.00;5068961;28;20045;-50
2022/08/18 07:54:22;;;;;;;51.95;35.85;;;;;;;18.25;95.51;99375.38;5069511;28;20138;-49
2022/08/18 07:56:59;;;;;;;43.83;30.58;;;;;;;18.31;95.65;99385.53;5068621;28;20044;-54
2022/08/18 07:59:33;;;;;;;47.53;32.75;;;;;;;18.43;95.15;99388.91;5050049;28;20056;-54
2022/08/18 08:02:16;;;;;;;41.92;31.45;;;;;;;18.50;94.16;99389.22;5072057;28;20044;-51
2022/08/18 08:04:54;;;;;;;43.95;31.65;;;;;;;18.57;93.48;99391.22;5049173;28;20052;-49
2022/08/18 08:07:24;;;;;;;43.65;31.95;;;;;;;18.57;93.44;99393.88;5049039;28;20045;-50
2022/08/18 08:10:04;;;;;;;40.10;30.23;;;;;;;18.65;91.29;99398.53;5064891;28;20497;-51
2022/08/18 08:12:41;;;;;;;38.30;27.80;;;;;;;18.72;91.59;99393.50;5069533;28;20101;-51
2022/08/18 08:15:17;;;;;;;34.88;26.38;;;;;;;18.75;91.64;99394.06;5068473;28;20072;-51
2022/08/18 08:17:53;;;;;;;40.55;29.65;;;;;;;18.68;90.00;99390.28;5071388;28;20056;-55
2022/08/18 08:20:27;;;;;;;34.60;25.55;;;;;;;18.70;90.69;99393.63;5072405;28;20052;-50
2022/08/18 08:23:04;;;;;;;38.63;30.17;;;;;;;18.67;90.79;99396.56;5073007;28;20070;-54
2022/08/18 08:25:40;;;;;;;33.03;24.42;;;;;;;18.88;89.08;99400.03;5073774;28;20135;-55
2022/08/18 08:28:26;;;;;;;37.40;27.35;;;;;;;18.88;88.34;99407.22;5073751;28;20059;-55
2022/08/18 08:31:01;;;;;;;30.48;23.08;;;;;;;18.95;88.37;99410.16;5072592;28;20059;-49
2022/08/18 08:33:33;;;;;;;40.42;30.27;;;;;;;18.92;87.92;99411.28;5072097;28;20045;-52
2022/08/18 08:36:06;;;;;;;37.50;28.38;;;;;;;18.67;88.91;99424.13;5071742;28;20041;-52
2022/08/18 08:38:43;;;;;;;28.35;23.63;;;;;;;18.72;89.58;99420.19;5071575;28;20052;-49
2022/08/18 08:41:14;;;;;;;37.35;27.75;;;;;;;18.65;89.75;99425.22;5071566;28;20076;-50
2022/08/18 08:43:47;;;;;;;34.15;25.50;;;;;;;18.69;90.42;99415.16;5071609;28;20151;-49
2022/08/18 08:46:19;;;;;;;35.97;24.73;;;;;;;18.78;90.48;99415.19;5067999;28;20052;-51
2022/08/18 08:48:53;;;;;;;31.42;25.48;;;;;;;18.86;89.75;99415.34;5071630;28;20079;-53
2022/08/18 08:51:31;;;;;;;41.92;31.20;;;;;;;18.85;89.56;99415.47;5071578;28;20049;-54
2022/08/18 08:54:04;;;;;;;34.40;27.30;;;;;;;18.77;90.72;99410.81;5071555;28;20055;-49
2022/08/18 08:56:35;;;;;;;50.88;32.55;;;;;;;18.77;91.27;99413.50;5074091;28;20072;-68
2022/08/18 08:59:07;;;;;;;39.42;29.20;;;;;;;18.77;92.03;99418.84;5084207;28;20125;-68
2022/08/18 09:01:42;;;;;;;33.30;25.52;;;;;;;18.76;91.96;99416.31;5092719;28;20044;-68
2022/08/18 09:04:22;;;;;;;29.45;23.90;;;;;;;18.78;91.50;99409.88;5092339;28;20048;-68
2022/08/18 09:06:59;;;;;;;35.75;25.38;;;;;;;18.83;91.49;99406.78;5092254;28;20087;-66
2022/08/18 09:09:46;;;;;;;31.27;23.05;;;;;;;18.83;89.97;99401.44;5091458;28;20418;-66
2022/08/18 09:12:28;;;;;;;36.78;25.63;;;;;;;18.82;89.88;99403.25;5090777;28;20503;-66
2022/08/18 09:15:16;;;;;;;41.97;30.05;;;;;;;18.83;89.76;99406.78;5086598;28;20392;-67
2022/08/18 09:18:02;;;;;;;32.22;23.90;;;;;;;18.88;91.32;99404.53;5070880;28;20052;-67
2022/08/18 09:20:47;;;;;;;40.90;29.98;;;;;;;18.87;90.48;99405.50;5070785;28;20127;-68
2022/08/18 09:23:20;;;;;;;31.70;24.38;;;;;;;18.94;91.26;99409.31;5070606;28;20056;-66
2022/08/18 09:25:50;;;;;;;39.83;29.20;;;;;;;18.99;89.93;99407.06;5070376;28;20065;-67
2022/08/18 09:28:21;;;;;;;38.25;26.77;;;;;;;19.00;90.53;99397.22;5070598;28;20063;-67
2022/08/18 09:31:13;;;;;;;38.78;28.88;;;;;;;19.03;90.17;99395.13;5070230;28;20076;-67
2022/08/18 09:34:05;;;;;;;45.03;32.80;;;;;;;19.01;89.48;99404.28;5070226;28;20048;-67
2022/08/18 09:36:43;;;;;;;39.78;29.15;;;;;;;19.05;89.80;99395.84;5070382;28;20048;-68
2022/08/18 09:42:13;;;;;;;33.55;26.98;;;;;;;19.28;88.68;99395.56;5070584;28;20067;-68
2022/08/18 09:45:03;;;;;;;44.53;29.27;;;;;;;19.46;93.01;99399.19;5070275;28;20114;-67
2022/08/18 09:48:04;;;;;;;32.97;24.98;;;;;;;19.68;89.78;99391.91;5070776;28;20127;-67
2022/08/18 09:50:53;;;;;;;36.47;26.90;;;;;;;19.59;84.54;99401.59;5070667;28;20080;-68
2022/08/18 09:53:54;;;;;;;34.95;26.67;;;;;;;19.61;84.28;99404.13;5078529;28;20048;-66
2022/08/18 09:56:57;;;;;;;32.90;27.35;;;;;;;19.65;83.48;99400.19;5087363;28;20072;-68
2022/08/18 09:59:53;;;;;;;33.40;26.60;;;;;;;19.66;83.12;99394.66;5090392;28;20495;-68
2022/08/18 10:03:07;;;;;;;32.50;26.55;;;;;;;19.66;84.23;99399.19;5085922;28;20051;-69
2022/08/18 10:05:35;;;;;;;35.67;28.75;;;;;;;19.72;83.22;99391.47;5050023;28;20642;-67
2022/08/18 10:08:44;;;;;;;32.60;26.88;;;;;;;19.69;82.33;99402.47;5049880;28;20063;-67
2022/08/18 10:11:27;;;;;;;36.00;27.92;;;;;;;19.70;84.82;99398.78;5050047;28;20077;-67
2022/08/18 10:14:08;;;;;;;35.00;28.90;;;;;;;19.71;82.47;99404.97;5049855;28;20045;-67
2022/08/18 10:16:47;;;;;;;36.78;29.23;;;;;;;19.78;82.70;99407.94;5066755;28;20048;-66
2022/08/18 10:19:22;;;;;;;48.00;32.55;;;;;;;19.84;83.03;99408.22;5069847;28;20140;-66
2022/08/18 10:22:06;;;;;;;34.72;29.70;;;;;;;19.85;81.62;99404.53;5069852;28;20690;-68
2022/08/18 10:24:36;;;;;;;33.08;27.15;;;;;;;19.84;81.55;99400.19;5069712;28;20071;-70
2022/08/18 10:27:05;;;;;;;34.10;26.95;;;;;;;19.91;81.31;99395.06;5069724;28;20044;-67
2022/08/18 10:29:53;;;;;;;37.65;31.48;;;;;;;20.01;81.30;99395.03;5069682;28;20659;-68
2022/08/18 10:32:36;;;;;;;32.38;26.38;;;;;;;20.06;82.11;99396.31;5068654;28;20054;-67
2022/08/18 10:35:04;;;;;;;32.25;25.00;;;;;;;20.21;81.53;99390.50;5069377;28;20132;-67
2022/08/18 10:37:39;;;;;;;30.33;25.13;;;;;;;20.35;79.96;99390.84;5069644;28;20419;-69
2022/08/18 10:40:15;;;;;;;41.55;29.98;;;;;;;20.47;79.09;99390.66;5069337;28;20431;-68
2022/08/18 10:42:47;;;;;;;39.25;27.23;;;;;;;20.58;77.77;99391.34;5069394;28;20138;-68
2022/08/18 10:45:22;;;;;;;35.75;27.63;;;;;;;20.63;77.20;99390.88;5066614;28;20044;-67
2022/08/18 10:48:05;;;;;;;32.65;26.75;;;;;;;20.71;77.13;99380.25;5049417;28;20069;-67
2022/08/18 10:50:40;;;;;;;29.85;22.65;;;;;;;20.78;77.07;99380.50;5076059;28;20135;-67
2022/08/18 10:53:13;;;;;;;;;;;;;;;20.76;76.20;99371.78;5084874;28;20054;-66
2022/08/18 10:55:49;;;;;;;34.00;26.25;;;;;;;20.74;75.77;99376.44;5070666;28;20384;-68
2022/08/18 10:58:32;;;;;;;34.20;28.20;;;;;;;20.85;76.18;99365.50;5069215;28;20761;-67
2022/08/18 11:01:16;;;;;;;37.05;28.17;;;;;;;20.94;79.30;99377.13;5070231;28;20432;-69
2022/08/18 11:04:04;;;;;;;35.30;29.17;;;;;;;21.04;74.32;99375.22;5070756;28;20048;-69
2022/08/18 11:06:40;;;;;;;35.22;29.30;;;;;;;21.11;73.45;99373.63;5069685;28;20044;-68
2022/08/18 11:09:09;;;;;;;34.50;28.80;;;;;;;21.18;72.88;99379.22;5069367;28;20500;-69
2022/08/18 11:11:42;;;;;;;33.60;27.95;;;;;;;21.26;72.49;99370.41;5069900;28;20078;-69
2022/08/18 11:14:23;;;;;;;30.50;26.05;;;;;;;21.35;71.54;99370.31;5071091;28;20057;-68
2022/08/18 11:16:57;;;;;;;31.88;25.52;;;;;;;21.48;71.29;99369.94;5070546;28;20059;-68
2022/08/18 11:19:25;;;;;;;27.65;24.75;;;;;;;21.60;70.09;99360.66;5071111;28;20059;-69
2022/08/18 11:21:53;;;;;;;30.15;26.10;;;;;;;21.79;70.03;99350.72;5070660;28;20542;-66
2022/08/18 11:24:23;;;;;;;27.48;22.98;;;;;;;21.96;68.45;99354.34;5069929;28;20059;-69
2022/08/18 11:26:53;;;;;;;29.15;25.70;;;;;;;22.04;68.60;99343.66;5070132;28;20048;-68
2022/08/18 11:29:32;;;;;;;26.23;23.13;;;;;;;22.05;67.74;99346.19;5069942;28;20052;-68
2022/08/18 11:32:05;;;;;;;31.73;26.60;;;;;;;22.00;68.10;99343.13;5071045;28;20048;-68
2022/08/18 11:34:38;;;;;;;27.15;24.17;;;;;;;21.91;67.96;99351.31;5072361;28;20048;-67
2022/08/18 11:37:08;;;;;;;30.17;24.55;;;;;;;21.93;68.72;99360.88;5069604;28;20152;-69
2022/08/18 11:39:48;;;;;;;27.45;22.88;;;;;;;21.97;69.15;99366.75;5069105;28;20234;-68
2022/08/18 11:42:15;;;;;;;26.95;23.58;;;;;;;22.00;67.80;99372.66;5069500;28;20056;-69
2022/08/18 11:44:43;;;;;;;27.00;22.10;;;;;;;22.13;66.92;99366.84;5067632;28;20052;-67
2022/08/18 11:47:17;;;;;;;28.17;24.90;;;;;;;22.20;67.09;99361.69;5076771;28;20703;-67
2022/08/18 11:50:07;;;;;;;28.50;22.77;;;;;;;22.25;66.95;99367.47;5048030;28;20049;-69
2022/08/18 11:52:47;;;;;;;28.67;24.80;;;;;;;22.33;67.01;99362.13;5048831;28;20550;-69
2022/08/18 11:55:22;;;;;;;25.42;22.35;;;;;;;22.43;65.83;99360.13;5048486;28;20398;-68
2022/08/18 11:57:54;;;;;;;28.75;24.83;;;;;;;22.53;65.32;99351.09;5047245;28;20049;-68
2022/08/18 12:00:52;;;;;;;24.77;22.17;;;;;;;22.56;65.38;99358.84;5050504;28;20053;-68